sensor_id;sensor_type;location;lat;lon;timestamp;P1;durP1;ratioP1;P2;durP2;ratioP2
60608;SDS011;48221;53.528;9.884;2023-02-12T00:01:32;1.60;;;1.50;;
60608;SDS011;48221;53.528;9.884;2023-02-12T00:03:58;3.05;;;2.33;;
60608;SDS011;48221;53.528;9.884;2023-02-12T00:06:24;1.70;;;1.60;;
60608;SDS011;48221;53.528;9.884;2023-02-12T00:08:50;1.52;;;1.42;;
60608;SDS011;48221;53.528;9.884;2023-02-12T00:11:17;2.20;;;2.00;;
60608;SDS011;48221;53.528;9.884;2023-02-12T00:13:44;2.33;;;2.00;;
60608;SDS011;48221;53.528;9.884;2023-02-12T00:16:12;2.00;;;1.80;;
60608;SDS011;48221;53.528;9.884;2023-02-12T00:18:39;1.38;;;1.27;;
60608;SDS011;48221;53.528;9.884;2023-02-12T00:21:05;2.08;;;1.98;;
60608;SDS011;48221;53.528;9.884;2023-02-12T00:23:32;2.40;;;1.88;;
60608;SDS011;48221;53.528;9.884;2023-02-12T00:25:58;2.53;;;1.80;;
60608;SDS011;48221;53.528;9.884;2023-02-12T00:28:23;2.03;;;1.80;;
60608;SDS011;48221;53.528;9.884;2023-02-12T00:30:48;2.20;;;2.00;;
60608;SDS011;48221;53.528;9.884;2023-02-12T00:33:14;1.67;;;1.58;;
60608;SDS011;48221;53.528;9.884;2023-02-12T00:35:39;2.58;;;1.58;;
60608;SDS011;48221;53.528;9.884;2023-02-12T00:38:05;1.27;;;0.82;;
60608;SDS011;48221;53.528;9.884;2023-02-12T00:40:30;0.82;;;0.82;;
60608;SDS011;48221;53.528;9.884;2023-02-12T00:42:55;1.75;;;1.45;;
60608;SDS011;48221;53.528;9.884;2023-02-12T00:45:20;0.68;;;0.68;;
60608;SDS011;48221;53.528;9.884;2023-02-12T00:47:46;1.20;;;1.10;;
60608;SDS011;48221;53.528;9.884;2023-02-12T00:50:11;0.80;;;0.80;;
60608;SDS011;48221;53.528;9.884;2023-02-12T00:52:36;0.88;;;0.88;;
60608;SDS011;48221;53.528;9.884;2023-02-12T00:55:01;1.42;;;1.10;;
60608;SDS011;48221;53.528;9.884;2023-02-12T00:57:27;6.03;;;1.50;;
60608;SDS011;48221;53.528;9.884;2023-02-12T00:59:52;2.17;;;1.98;;
60608;SDS011;48221;53.528;9.884;2023-02-12T01:02:18;1.70;;;1.60;;
60608;SDS011;48221;53.528;9.884;2023-02-12T01:04:43;2.47;;;1.73;;
60608;SDS011;48221;53.528;9.884;2023-02-12T01:07:09;1.25;;;1.17;;
60608;SDS011;48221;53.528;9.884;2023-02-12T01:09:34;2.45;;;2.00;;
60608;SDS011;48221;53.528;9.884;2023-02-12T01:12:00;1.00;;;0.93;;
60608;SDS011;48221;53.528;9.884;2023-02-12T01:14:25;1.63;;;1.52;;
60608;SDS011;48221;53.528;9.884;2023-02-12T01:16:51;1.48;;;1.23;;
60608;SDS011;48221;53.528;9.884;2023-02-12T01:19:16;1.45;;;1.35;;
60608;SDS011;48221;53.528;9.884;2023-02-12T01:21:41;1.98;;;1.25;;
60608;SDS011;48221;53.528;9.884;2023-02-12T01:24:06;2.20;;;1.67;;
60608;SDS011;48221;53.528;9.884;2023-02-12T01:26:32;1.40;;;1.30;;
60608;SDS011;48221;53.528;9.884;2023-02-12T01:28:58;1.45;;;1.38;;
60608;SDS011;48221;53.528;9.884;2023-02-12T01:31:26;1.50;;;1.27;;
60608;SDS011;48221;53.528;9.884;2023-02-12T01:33:55;1.40;;;1.30;;
60608;SDS011;48221;53.528;9.884;2023-02-12T01:36:21;2.60;;;1.20;;
60608;SDS011;48221;53.528;9.884;2023-02-12T01:38:47;0.88;;;0.88;;
60608;SDS011;48221;53.528;9.884;2023-02-12T01:41:14;2.25;;;0.88;;
60608;SDS011;48221;53.528;9.884;2023-02-12T01:46:42;0.70;;;0.70;;
60608;SDS011;48221;53.528;9.884;2023-02-12T01:49:11;0.73;;;0.73;;
60608;SDS011;48221;53.528;9.884;2023-02-12T01:51:41;0.93;;;0.90;;
60608;SDS011;48221;53.528;9.884;2023-02-12T01:54:10;1.60;;;1.27;;
60608;SDS011;48221;53.528;9.884;2023-02-12T01:56:39;1.00;;;1.00;;
60608;SDS011;48221;53.528;9.884;2023-02-12T01:59:05;1.45;;;1.35;;
60608;SDS011;48221;53.528;9.884;2023-02-12T02:01:30;1.38;;;1.27;;
60608;SDS011;48221;53.528;9.884;2023-02-12T02:03:58;1.40;;;1.30;;
60608;SDS011;48221;53.528;9.884;2023-02-12T02:06:33;1.13;;;1.08;;
60608;SDS011;48221;53.528;9.884;2023-02-12T02:09:02;1.00;;;0.90;;
60608;SDS011;48221;53.528;9.884;2023-02-12T02:11:28;1.45;;;1.25;;
60608;SDS011;48221;53.528;9.884;2023-02-12T02:14:12;2.10;;;1.70;;
60608;SDS011;48221;53.528;9.884;2023-02-12T02:16:59;2.97;;;1.45;;
60608;SDS011;48221;53.528;9.884;2023-02-12T02:19:49;1.30;;;1.20;;
60608;SDS011;48221;53.528;9.884;2023-02-12T02:22:27;1.42;;;1.33;;
60608;SDS011;48221;53.528;9.884;2023-02-12T02:28:05;1.10;;;1.00;;
60608;SDS011;48221;53.528;9.884;2023-02-12T02:30:41;9.48;;;1.05;;
60608;SDS011;48221;53.528;9.884;2023-02-12T02:33:28;1.10;;;0.93;;
60608;SDS011;48221;53.528;9.884;2023-02-12T02:36:13;1.10;;;1.02;;
60608;SDS011;48221;53.528;9.884;2023-02-12T02:38:49;0.50;;;0.50;;
60608;SDS011;48221;53.528;9.884;2023-02-12T02:44:00;2.70;;;1.25;;
60608;SDS011;48221;53.528;9.884;2023-02-12T02:46:29;0.40;;;0.40;;
60608;SDS011;48221;53.528;9.884;2023-02-12T02:49:02;0.52;;;0.52;;
60608;SDS011;48221;53.528;9.884;2023-02-12T02:51:32;0.90;;;0.90;;
60608;SDS011;48221;53.528;9.884;2023-02-12T02:54:25;0.70;;;0.70;;
60608;SDS011;48221;53.528;9.884;2023-02-12T02:57:00;0.65;;;0.60;;
60608;SDS011;48221;53.528;9.884;2023-02-12T02:59:33;0.73;;;0.73;;
60608;SDS011;48221;53.528;9.884;2023-02-12T03:02:05;1.10;;;1.00;;
60608;SDS011;48221;53.528;9.884;2023-02-12T03:04:38;1.15;;;1.05;;
60608;SDS011;48221;53.528;9.884;2023-02-12T03:07:10;0.60;;;0.60;;
60608;SDS011;48221;53.528;9.884;2023-02-12T03:09:41;1.40;;;1.00;;
60608;SDS011;48221;53.528;9.884;2023-02-12T03:12:16;0.77;;;0.77;;
60608;SDS011;48221;53.528;9.884;2023-02-12T03:14:47;2.33;;;1.20;;
60608;SDS011;48221;53.528;9.884;2023-02-12T03:17:25;0.68;;;0.68;;
60608;SDS011;48221;53.528;9.884;2023-02-12T03:19:56;0.70;;;0.70;;
60608;SDS011;48221;53.528;9.884;2023-02-12T03:22:33;1.40;;;1.30;;
60608;SDS011;48221;53.528;9.884;2023-02-12T03:25:12;0.75;;;0.75;;
60608;SDS011;48221;53.528;9.884;2023-02-12T03:27:41;1.15;;;1.05;;
60608;SDS011;48221;53.528;9.884;2023-02-12T03:30:10;1.10;;;0.95;;
60608;SDS011;48221;53.528;9.884;2023-02-12T03:32:54;1.60;;;1.50;;
60608;SDS011;48221;53.528;9.884;2023-02-12T03:35:31;0.70;;;0.70;;
60608;SDS011;48221;53.528;9.884;2023-02-12T03:38:07;2.00;;;1.20;;
60608;SDS011;48221;53.528;9.884;2023-02-12T03:40:50;0.85;;;0.85;;
60608;SDS011;48221;53.528;9.884;2023-02-12T03:43:24;2.50;;;1.33;;
60608;SDS011;48221;53.528;9.884;2023-02-12T03:48:45;1.45;;;1.35;;
60608;SDS011;48221;53.528;9.884;2023-02-12T03:51:21;2.40;;;2.10;;
60608;SDS011;48221;53.528;9.884;2023-02-12T03:53:53;0.80;;;0.73;;
60608;SDS011;48221;53.528;9.884;2023-02-12T03:56:24;2.08;;;1.23;;
60608;SDS011;48221;53.528;9.884;2023-02-12T03:58:56;1.80;;;1.02;;
60608;SDS011;48221;53.528;9.884;2023-02-12T04:01:21;1.92;;;1.80;;
60608;SDS011;48221;53.528;9.884;2023-02-12T04:03:46;3.22;;;1.58;;
60608;SDS011;48221;53.528;9.884;2023-02-12T04:09:08;4.18;;;1.60;;
60608;SDS011;48221;53.528;9.884;2023-02-12T04:11:40;2.75;;;2.00;;
60608;SDS011;48221;53.528;9.884;2023-02-12T04:31:04;2.50;;;2.03;;
60608;SDS011;48221;53.528;9.884;2023-02-12T04:33:39;4.75;;;2.45;;
60608;SDS011;48221;53.528;9.884;2023-02-12T04:36:12;4.20;;;1.77;;
60608;SDS011;48221;53.528;9.884;2023-02-12T04:39:16;1.42;;;1.33;;
60608;SDS011;48221;53.528;9.884;2023-02-12T04:41:36;4.10;;;2.00;;
60608;SDS011;48221;53.528;9.884;2023-02-12T04:44:13;1.52;;;1.40;;
60608;SDS011;48221;53.528;9.884;2023-02-12T04:46:49;1.95;;;1.25;;
60608;SDS011;48221;53.528;9.884;2023-02-12T04:49:15;2.10;;;1.50;;
60608;SDS011;48221;53.528;9.884;2023-02-12T04:51:43;1.15;;;1.15;;
60608;SDS011;48221;53.528;9.884;2023-02-12T04:54:09;3.55;;;2.15;;
60608;SDS011;48221;53.528;9.884;2023-02-12T04:56:34;2.20;;;1.50;;
60608;SDS011;48221;53.528;9.884;2023-02-12T04:58:59;1.83;;;1.30;;
60608;SDS011;48221;53.528;9.884;2023-02-12T05:01:24;2.67;;;1.75;;
60608;SDS011;48221;53.528;9.884;2023-02-12T05:03:50;2.00;;;1.77;;
60608;SDS011;48221;53.528;9.884;2023-02-12T05:06:16;1.45;;;1.35;;
60608;SDS011;48221;53.528;9.884;2023-02-12T05:08:42;1.35;;;1.13;;
60608;SDS011;48221;53.528;9.884;2023-02-12T05:11:07;1.10;;;1.10;;
60608;SDS011;48221;53.528;9.884;2023-02-12T05:13:34;1.63;;;1.52;;
60608;SDS011;48221;53.528;9.884;2023-02-12T05:15:59;1.88;;;1.60;;
60608;SDS011;48221;53.528;9.884;2023-02-12T05:18:24;0.82;;;0.82;;
60608;SDS011;48221;53.528;9.884;2023-02-12T05:20:59;1.90;;;1.38;;
60608;SDS011;48221;53.528;9.884;2023-02-12T05:23:27;1.35;;;1.25;;
60608;SDS011;48221;53.528;9.884;2023-02-12T05:25:54;3.30;;;1.75;;
60608;SDS011;48221;53.528;9.884;2023-02-12T05:28:22;1.80;;;1.65;;
60608;SDS011;48221;53.528;9.884;2023-02-12T05:30:48;2.05;;;1.85;;
60608;SDS011;48221;53.528;9.884;2023-02-12T05:33:13;1.83;;;1.73;;
60608;SDS011;48221;53.528;9.884;2023-02-12T05:35:38;2.75;;;1.60;;
60608;SDS011;48221;53.528;9.884;2023-02-12T05:38:03;3.50;;;2.10;;
60608;SDS011;48221;53.528;9.884;2023-02-12T05:40:29;2.13;;;1.92;;
60608;SDS011;48221;53.528;9.884;2023-02-12T05:42:54;3.38;;;1.98;;
60608;SDS011;48221;53.528;9.884;2023-02-12T05:45:19;1.77;;;1.60;;
60608;SDS011;48221;53.528;9.884;2023-02-12T05:47:44;5.47;;;1.70;;
60608;SDS011;48221;53.528;9.884;2023-02-12T05:50:10;3.33;;;1.80;;
60608;SDS011;48221;53.528;9.884;2023-02-12T05:52:35;4.63;;;1.98;;
60608;SDS011;48221;53.528;9.884;2023-02-12T05:55:00;1.88;;;1.70;;
60608;SDS011;48221;53.528;9.884;2023-02-12T05:57:26;2.17;;;1.85;;
60608;SDS011;48221;53.528;9.884;2023-02-12T05:59:51;2.05;;;1.85;;
60608;SDS011;48221;53.528;9.884;2023-02-12T06:02:17;2.53;;;1.98;;
60608;SDS011;48221;53.528;9.884;2023-02-12T06:04:42;2.67;;;1.88;;
60608;SDS011;48221;53.528;9.884;2023-02-12T06:07:07;1.80;;;1.70;;
60608;SDS011;48221;53.528;9.884;2023-02-12T06:09:33;1.88;;;1.60;;
60608;SDS011;48221;53.528;9.884;2023-02-12T06:11:59;1.33;;;1.08;;
60608;SDS011;48221;53.528;9.884;2023-02-12T06:14:25;1.50;;;1.33;;
60608;SDS011;48221;53.528;9.884;2023-02-12T06:16:51;1.77;;;1.50;;
60608;SDS011;48221;53.528;9.884;2023-02-12T06:19:17;2.13;;;1.63;;
60608;SDS011;48221;53.528;9.884;2023-02-12T06:21:44;2.90;;;1.52;;
60608;SDS011;48221;53.528;9.884;2023-02-12T06:24:12;1.73;;;1.63;;
60608;SDS011;48221;53.528;9.884;2023-02-12T06:26:39;1.70;;;0.95;;
60608;SDS011;48221;53.528;9.884;2023-02-12T06:29:05;1.88;;;1.58;;
60608;SDS011;48221;53.528;9.884;2023-02-12T06:31:31;1.65;;;1.48;;
60608;SDS011;48221;53.528;9.884;2023-02-12T06:33:59;1.33;;;1.23;;
60608;SDS011;48221;53.528;9.884;2023-02-12T06:36:26;1.25;;;1.15;;
60608;SDS011;48221;53.528;9.884;2023-02-12T06:38:52;2.90;;;1.27;;
60608;SDS011;48221;53.528;9.884;2023-02-12T06:41:17;1.42;;;1.33;;
60608;SDS011;48221;53.528;9.884;2023-02-12T06:43:43;2.90;;;2.28;;
60608;SDS011;48221;53.528;9.884;2023-02-12T06:46:08;3.25;;;2.22;;
60608;SDS011;48221;53.528;9.884;2023-02-12T06:48:33;4.78;;;2.90;;
60608;SDS011;48221;53.528;9.884;2023-02-12T06:51:02;3.13;;;2.10;;
60608;SDS011;48221;53.528;9.884;2023-02-12T06:53:32;2.17;;;1.48;;
60608;SDS011;48221;53.528;9.884;2023-02-12T06:55:59;2.28;;;1.80;;
60608;SDS011;48221;53.528;9.884;2023-02-12T06:58:25;0.70;;;0.70;;
60608;SDS011;48221;53.528;9.884;2023-02-12T07:00:51;1.25;;;1.15;;
60608;SDS011;48221;53.528;9.884;2023-02-12T07:03:16;1.63;;;1.38;;
60608;SDS011;48221;53.528;9.884;2023-02-12T07:05:41;1.80;;;1.30;;
60608;SDS011;48221;53.528;9.884;2023-02-12T07:08:07;3.13;;;2.38;;
60608;SDS011;48221;53.528;9.884;2023-02-12T07:10:33;2.55;;;2.00;;
60608;SDS011;48221;53.528;9.884;2023-02-12T07:12:58;3.90;;;2.05;;
60608;SDS011;48221;53.528;9.884;2023-02-12T07:15:23;1.85;;;1.60;;
60608;SDS011;48221;53.528;9.884;2023-02-12T07:17:48;2.72;;;1.92;;
60608;SDS011;48221;53.528;9.884;2023-02-12T07:20:14;5.15;;;2.17;;
60608;SDS011;48221;53.528;9.884;2023-02-12T07:22:39;2.22;;;2.00;;
60608;SDS011;48221;53.528;9.884;2023-02-12T07:25:04;2.25;;;1.42;;
60608;SDS011;48221;53.528;9.884;2023-02-12T07:27:30;1.73;;;1.63;;
60608;SDS011;48221;53.528;9.884;2023-02-12T07:29:55;2.10;;;1.80;;
60608;SDS011;48221;53.528;9.884;2023-02-12T07:32:20;1.73;;;1.55;;
60608;SDS011;48221;53.528;9.884;2023-02-12T07:34:46;2.15;;;1.73;;
60608;SDS011;48221;53.528;9.884;2023-02-12T07:37:11;4.68;;;2.28;;
60608;SDS011;48221;53.528;9.884;2023-02-12T07:39:36;2.97;;;2.47;;
60608;SDS011;48221;53.528;9.884;2023-02-12T07:42:01;5.70;;;3.45;;
60608;SDS011;48221;53.528;9.884;2023-02-12T07:44:27;7.57;;;3.55;;
60608;SDS011;48221;53.528;9.884;2023-02-12T07:46:52;5.10;;;3.10;;
60608;SDS011;48221;53.528;9.884;2023-02-12T07:49:21;6.50;;;3.75;;
60608;SDS011;48221;53.528;9.884;2023-02-12T07:51:47;5.85;;;2.97;;
60608;SDS011;48221;53.528;9.884;2023-02-12T07:54:13;4.38;;;2.85;;
60608;SDS011;48221;53.528;9.884;2023-02-12T07:56:39;6.55;;;3.97;;
60608;SDS011;48221;53.528;9.884;2023-02-12T07:59:07;5.57;;;3.25;;
60608;SDS011;48221;53.528;9.884;2023-02-12T08:01:35;5.60;;;3.80;;
60608;SDS011;48221;53.528;9.884;2023-02-12T08:04:03;7.53;;;3.45;;
60608;SDS011;48221;53.528;9.884;2023-02-12T08:06:31;4.15;;;2.45;;
60608;SDS011;48221;53.528;9.884;2023-02-12T08:08:59;3.50;;;2.95;;
60608;SDS011;48221;53.528;9.884;2023-02-12T08:11:26;5.00;;;3.40;;
60608;SDS011;48221;53.528;9.884;2023-02-12T08:13:52;4.15;;;3.25;;
60608;SDS011;48221;53.528;9.884;2023-02-12T08:16:19;5.75;;;3.58;;
60608;SDS011;48221;53.528;9.884;2023-02-12T08:18:46;6.55;;;3.60;;
60608;SDS011;48221;53.528;9.884;2023-02-12T08:21:12;7.45;;;3.60;;
60608;SDS011;48221;53.528;9.884;2023-02-12T08:23:40;5.18;;;3.58;;
60608;SDS011;48221;53.528;9.884;2023-02-12T08:28:34;6.25;;;4.28;;
60608;SDS011;48221;53.528;9.884;2023-02-12T08:31:04;3.63;;;2.92;;
60608;SDS011;48221;53.528;9.884;2023-02-12T08:33:31;4.93;;;3.08;;
60608;SDS011;48221;53.528;9.884;2023-02-12T08:36:07;3.13;;;2.42;;
60608;SDS011;48221;53.528;9.884;2023-02-12T08:38:34;4.88;;;2.90;;
60608;SDS011;48221;53.528;9.884;2023-02-12T08:41:01;5.20;;;3.20;;
60608;SDS011;48221;53.528;9.884;2023-02-12T08:43:27;3.85;;;2.47;;
60608;SDS011;48221;53.528;9.884;2023-02-12T08:45:53;4.75;;;2.85;;
60608;SDS011;48221;53.528;9.884;2023-02-12T08:48:19;3.50;;;2.25;;
60608;SDS011;48221;53.528;9.884;2023-02-12T08:50:44;3.42;;;2.60;;
60608;SDS011;48221;53.528;9.884;2023-02-12T08:53:10;4.03;;;2.83;;
60608;SDS011;48221;53.528;9.884;2023-02-12T08:55:35;4.25;;;2.67;;
60608;SDS011;48221;53.528;9.884;2023-02-12T08:58:00;3.70;;;2.85;;
60608;SDS011;48221;53.528;9.884;2023-02-12T09:00:26;3.20;;;2.50;;
60608;SDS011;48221;53.528;9.884;2023-02-12T09:02:52;2.85;;;2.30;;
60608;SDS011;48221;53.528;9.884;2023-02-12T09:05:17;4.85;;;3.25;;
60608;SDS011;48221;53.528;9.884;2023-02-12T09:07:42;4.70;;;3.10;;
60608;SDS011;48221;53.528;9.884;2023-02-12T09:10:07;4.25;;;3.08;;
60608;SDS011;48221;53.528;9.884;2023-02-12T09:12:33;5.40;;;3.13;;
60608;SDS011;48221;53.528;9.884;2023-02-12T09:14:58;3.65;;;2.65;;
60608;SDS011;48221;53.528;9.884;2023-02-12T09:17:24;10.35;;;4.78;;
60608;SDS011;48221;53.528;9.884;2023-02-12T09:19:51;8.63;;;4.50;;
60608;SDS011;48221;53.528;9.884;2023-02-12T09:22:17;8.15;;;3.08;;
60608;SDS011;48221;53.528;9.884;2023-02-12T09:24:42;8.75;;;4.55;;
60608;SDS011;48221;53.528;9.884;2023-02-12T09:27:07;5.95;;;3.63;;
60608;SDS011;48221;53.528;9.884;2023-02-12T09:29:33;4.38;;;3.10;;
60608;SDS011;48221;53.528;9.884;2023-02-12T09:31:58;7.43;;;4.28;;
60608;SDS011;48221;53.528;9.884;2023-02-12T09:34:23;6.72;;;3.33;;
60608;SDS011;48221;53.528;9.884;2023-02-12T09:36:48;4.93;;;2.72;;
60608;SDS011;48221;53.528;9.884;2023-02-12T09:39:14;4.47;;;3.15;;
60608;SDS011;48221;53.528;9.884;2023-02-12T09:41:49;7.80;;;3.55;;
60608;SDS011;48221;53.528;9.884;2023-02-12T09:44:36;4.13;;;2.92;;
60608;SDS011;48221;53.528;9.884;2023-02-12T09:52:27;5.88;;;3.67;;
60608;SDS011;48221;53.528;9.884;2023-02-12T09:54:53;5.90;;;3.45;;
60608;SDS011;48221;53.528;9.884;2023-02-12T09:57:22;6.82;;;4.00;;
60608;SDS011;48221;53.528;9.884;2023-02-12T09:59:55;8.65;;;4.45;;
60608;SDS011;48221;53.528;9.884;2023-02-12T10:02:23;6.40;;;3.85;;
60608;SDS011;48221;53.528;9.884;2023-02-12T10:04:49;5.57;;;3.50;;
60608;SDS011;48221;53.528;9.884;2023-02-12T10:18:03;5.00;;;3.05;;
60608;SDS011;48221;53.528;9.884;2023-02-12T10:25:52;4.18;;;3.00;;
60608;SDS011;48221;53.528;9.884;2023-02-12T10:28:23;4.20;;;2.60;;
60608;SDS011;48221;53.528;9.884;2023-02-12T10:30:55;4.22;;;2.85;;
60608;SDS011;48221;53.528;9.884;2023-02-12T10:35:58;4.50;;;2.67;;
60608;SDS011;48221;53.528;9.884;2023-02-12T10:38:32;3.40;;;2.45;;
60608;SDS011;48221;53.528;9.884;2023-02-12T10:41:02;4.40;;;2.97;;
60608;SDS011;48221;53.528;9.884;2023-02-12T10:43:28;3.65;;;2.80;;
60608;SDS011;48221;53.528;9.884;2023-02-12T10:45:54;3.85;;;2.78;;
60608;SDS011;48221;53.528;9.884;2023-02-12T10:48:29;6.78;;;2.83;;
60608;SDS011;48221;53.528;9.884;2023-02-12T10:53:37;9.70;;;3.50;;
60608;SDS011;48221;53.528;9.884;2023-02-12T10:58:36;4.80;;;3.30;;
60608;SDS011;48221;53.528;9.884;2023-02-12T11:01:04;5.40;;;3.08;;
60608;SDS011;48221;53.528;9.884;2023-02-12T11:03:44;5.97;;;2.70;;
60608;SDS011;48221;53.528;9.884;2023-02-12T11:06:10;6.13;;;3.72;;
60608;SDS011;48221;53.528;9.884;2023-02-12T11:08:37;6.57;;;4.07;;
60608;SDS011;48221;53.528;9.884;2023-02-12T11:11:05;8.82;;;4.68;;
60608;SDS011;48221;53.528;9.884;2023-02-12T11:13:34;7.53;;;4.13;;
60608;SDS011;48221;53.528;9.884;2023-02-12T11:16:00;6.05;;;4.07;;
60608;SDS011;48221;53.528;9.884;2023-02-12T11:18:27;5.82;;;3.47;;
60608;SDS011;48221;53.528;9.884;2023-02-12T11:21:00;15.63;;;4.22;;
60608;SDS011;48221;53.528;9.884;2023-02-12T11:23:32;9.02;;;4.05;;
60608;SDS011;48221;53.528;9.884;2023-02-12T11:26:43;4.22;;;3.03;;
60608;SDS011;48221;53.528;9.884;2023-02-12T11:28:55;3.55;;;2.90;;
60608;SDS011;48221;53.528;9.884;2023-02-12T11:31:26;5.97;;;3.70;;
60608;SDS011;48221;53.528;9.884;2023-02-12T11:36:40;8.57;;;4.07;;
60608;SDS011;48221;53.528;9.884;2023-02-12T11:39:16;3.92;;;3.17;;
60608;SDS011;48221;53.528;9.884;2023-02-12T11:41:55;4.15;;;2.63;;
60608;SDS011;48221;53.528;9.884;2023-02-12T11:44:24;5.72;;;3.30;;
60608;SDS011;48221;53.528;9.884;2023-02-12T11:49:30;5.10;;;3.80;;
60608;SDS011;48221;53.528;9.884;2023-02-12T11:51:59;9.10;;;3.85;;
60608;SDS011;48221;53.528;9.884;2023-02-12T11:54:27;6.32;;;4.03;;
60608;SDS011;48221;53.528;9.884;2023-02-12T11:56:56;6.53;;;4.10;;
60608;SDS011;48221;53.528;9.884;2023-02-12T12:02:02;7.47;;;4.65;;
60608;SDS011;48221;53.528;9.884;2023-02-12T12:04:38;9.77;;;4.07;;
60608;SDS011;48221;53.528;9.884;2023-02-12T12:07:10;6.22;;;3.75;;
60608;SDS011;48221;53.528;9.884;2023-02-12T12:10:03;9.13;;;4.50;;
60608;SDS011;48221;53.528;9.884;2023-02-12T12:15:14;4.45;;;3.17;;
60608;SDS011;48221;53.528;9.884;2023-02-12T12:18:04;6.85;;;3.90;;
60608;SDS011;48221;53.528;9.884;2023-02-12T12:21:44;3.60;;;3.08;;
60608;SDS011;48221;53.528;9.884;2023-02-12T12:24:13;6.43;;;3.65;;
60608;SDS011;48221;53.528;9.884;2023-02-12T12:26:46;5.00;;;3.17;;
60608;SDS011;48221;53.528;9.884;2023-02-12T12:29:23;3.20;;;2.63;;
60608;SDS011;48221;53.528;9.884;2023-02-12T12:31:54;6.50;;;3.90;;
60608;SDS011;48221;53.528;9.884;2023-02-12T12:34:23;3.42;;;2.75;;
60608;SDS011;48221;53.528;9.884;2023-02-12T12:37:02;4.30;;;2.47;;
60608;SDS011;48221;53.528;9.884;2023-02-12T12:51:22;2.50;;;2.10;;
60608;SDS011;48221;53.528;9.884;2023-02-12T12:54:24;2.40;;;2.10;;
60608;SDS011;48221;53.528;9.884;2023-02-12T13:00:13;4.15;;;2.50;;
60608;SDS011;48221;53.528;9.884;2023-02-12T13:05:40;2.42;;;1.88;;
60608;SDS011;48221;53.528;9.884;2023-02-12T13:11:10;1.30;;;1.30;;
60608;SDS011;48221;53.528;9.884;2023-02-12T13:13:52;1.80;;;1.70;;
60608;SDS011;48221;53.528;9.884;2023-02-12T13:16:29;2.03;;;1.83;;
60608;SDS011;48221;53.528;9.884;2023-02-12T13:19:13;2.50;;;1.88;;
60608;SDS011;48221;53.528;9.884;2023-02-12T13:22:03;1.90;;;1.73;;
60608;SDS011;48221;53.528;9.884;2023-02-12T13:24:46;2.33;;;2.00;;
60608;SDS011;48221;53.528;9.884;2023-02-12T13:27:24;3.58;;;2.17;;
60608;SDS011;48221;53.528;9.884;2023-02-12T13:29:58;2.60;;;2.00;;
60608;SDS011;48221;53.528;9.884;2023-02-12T13:35:32;1.42;;;1.33;;
60608;SDS011;48221;53.528;9.884;2023-02-12T13:38:01;1.38;;;1.27;;
60608;SDS011;48221;53.528;9.884;2023-02-12T13:40:29;1.83;;;1.70;;
60608;SDS011;48221;53.528;9.884;2023-02-12T13:42:57;4.43;;;2.55;;
60608;SDS011;48221;53.528;9.884;2023-02-12T13:51:35;0.77;;;0.77;;
60608;SDS011;48221;53.528;9.884;2023-02-12T13:56:52;1.48;;;1.38;;
60608;SDS011;48221;53.528;9.884;2023-02-12T13:59:36;1.23;;;1.13;;
60608;SDS011;48221;53.528;9.884;2023-02-12T14:04:53;0.65;;;0.65;;
60608;SDS011;48221;53.528;9.884;2023-02-12T14:07:23;1.10;;;1.08;;
60608;SDS011;48221;53.528;9.884;2023-02-12T14:10:04;1.65;;;1.55;;
60608;SDS011;48221;53.528;9.884;2023-02-12T14:12:31;1.35;;;1.25;;
60608;SDS011;48221;53.528;9.884;2023-02-12T14:15:04;1.15;;;1.10;;
60608;SDS011;48221;53.528;9.884;2023-02-12T14:30:22;1.23;;;1.13;;
60608;SDS011;48221;53.528;9.884;2023-02-12T14:37:55;0.90;;;0.90;;
60608;SDS011;48221;53.528;9.884;2023-02-12T14:48:59;1.27;;;1.17;;
60608;SDS011;48221;53.528;9.884;2023-02-12T14:51:37;1.48;;;1.38;;
60608;SDS011;48221;53.528;9.884;2023-02-12T14:54:34;1.58;;;1.48;;
60608;SDS011;48221;53.528;9.884;2023-02-12T14:57:05;2.33;;;1.55;;
60608;SDS011;48221;53.528;9.884;2023-02-12T14:59:38;2.97;;;1.95;;
60608;SDS011;48221;53.528;9.884;2023-02-12T15:02:07;2.10;;;1.90;;
60608;SDS011;48221;53.528;9.884;2023-02-12T15:04:43;1.83;;;1.65;;
60608;SDS011;48221;53.528;9.884;2023-02-12T15:07:10;1.67;;;1.58;;
60608;SDS011;48221;53.528;9.884;2023-02-12T15:09:51;1.02;;;0.95;;
60608;SDS011;48221;53.528;9.884;2023-02-12T15:12:26;0.98;;;0.98;;
60608;SDS011;48221;53.528;9.884;2023-02-12T15:15:20;1.50;;;1.40;;
60608;SDS011;48221;53.528;9.884;2023-02-12T15:17:55;1.27;;;1.17;;
60608;SDS011;48221;53.528;9.884;2023-02-12T15:20:32;0.93;;;0.93;;
60608;SDS011;48221;53.528;9.884;2023-02-12T15:23:04;0.68;;;0.68;;
60608;SDS011;48221;53.528;9.884;2023-02-12T15:26:02;1.83;;;1.10;;
60608;SDS011;48221;53.528;9.884;2023-02-12T15:28:31;1.08;;;1.08;;
60608;SDS011;48221;53.528;9.884;2023-02-12T15:31:00;1.17;;;1.08;;
60608;SDS011;48221;53.528;9.884;2023-02-12T15:33:28;1.20;;;1.10;;
60608;SDS011;48221;53.528;9.884;2023-02-12T15:35:56;1.70;;;1.60;;
60608;SDS011;48221;53.528;9.884;2023-02-12T15:38:30;1.05;;;1.05;;
60608;SDS011;48221;53.528;9.884;2023-02-12T15:40:59;1.60;;;1.50;;
60608;SDS011;48221;53.528;9.884;2023-02-12T15:43:27;1.65;;;1.55;;
60608;SDS011;48221;53.528;9.884;2023-02-12T15:45:58;1.60;;;1.50;;
60608;SDS011;48221;53.528;9.884;2023-02-12T15:48:28;1.10;;;1.10;;
60608;SDS011;48221;53.528;9.884;2023-02-12T15:51:20;0.77;;;0.77;;
60608;SDS011;48221;53.528;9.884;2023-02-12T15:53:51;1.15;;;1.10;;
60608;SDS011;48221;53.528;9.884;2023-02-12T15:56:17;0.88;;;0.88;;
60608;SDS011;48221;53.528;9.884;2023-02-12T15:58:46;1.65;;;1.55;;
60608;SDS011;48221;53.528;9.884;2023-02-12T16:01:13;1.50;;;1.40;;
60608;SDS011;48221;53.528;9.884;2023-02-12T16:03:43;1.10;;;1.10;;
60608;SDS011;48221;53.528;9.884;2023-02-12T16:06:13;1.10;;;1.08;;
60608;SDS011;48221;53.528;9.884;2023-02-12T16:08:41;1.00;;;1.00;;
60608;SDS011;48221;53.528;9.884;2023-02-12T16:11:09;0.77;;;0.77;;
60608;SDS011;48221;53.528;9.884;2023-02-12T16:13:39;0.70;;;0.70;;
60608;SDS011;48221;53.528;9.884;2023-02-12T16:18:36;1.05;;;1.05;;
60608;SDS011;48221;53.528;9.884;2023-02-12T16:21:16;2.50;;;0.85;;
60608;SDS011;48221;53.528;9.884;2023-02-12T16:23:44;1.60;;;1.50;;
60608;SDS011;48221;53.528;9.884;2023-02-12T16:26:15;2.03;;;1.60;;
60608;SDS011;48221;53.528;9.884;2023-02-12T16:28:44;2.53;;;1.85;;
60608;SDS011;48221;53.528;9.884;2023-02-12T16:31:12;1.85;;;1.20;;
60608;SDS011;48221;53.528;9.884;2023-02-12T16:36:14;6.13;;;1.30;;
60608;SDS011;48221;53.528;9.884;2023-02-12T16:38:59;2.25;;;1.75;;
60608;SDS011;48221;53.528;9.884;2023-02-12T16:41:33;1.73;;;1.63;;
60608;SDS011;48221;53.528;9.884;2023-02-12T16:44:20;1.20;;;1.10;;
60608;SDS011;48221;53.528;9.884;2023-02-12T16:46:53;1.17;;;1.10;;
60608;SDS011;48221;53.528;9.884;2023-02-12T16:49:21;0.98;;;0.90;;
60608;SDS011;48221;53.528;9.884;2023-02-12T16:51:48;0.80;;;0.80;;
60608;SDS011;48221;53.528;9.884;2023-02-12T16:54:30;2.30;;;1.25;;
60608;SDS011;48221;53.528;9.884;2023-02-12T16:56:57;0.90;;;0.90;;
60608;SDS011;48221;53.528;9.884;2023-02-12T16:59:23;1.30;;;1.20;;
60608;SDS011;48221;53.528;9.884;2023-02-12T17:02:02;1.95;;;1.38;;
60608;SDS011;48221;53.528;9.884;2023-02-12T17:04:30;0.95;;;0.95;;
60608;SDS011;48221;53.528;9.884;2023-02-12T17:06:55;1.45;;;1.35;;
60608;SDS011;48221;53.528;9.884;2023-02-12T17:09:21;1.48;;;1.30;;
60608;SDS011;48221;53.528;9.884;2023-02-12T17:11:47;0.77;;;0.77;;
60608;SDS011;48221;53.528;9.884;2023-02-12T17:14:13;1.42;;;1.20;;
60608;SDS011;48221;53.528;9.884;2023-02-12T17:16:40;0.95;;;0.95;;
60608;SDS011;48221;53.528;9.884;2023-02-12T17:19:05;1.13;;;1.02;;
60608;SDS011;48221;53.528;9.884;2023-02-12T17:21:32;0.60;;;0.60;;
60608;SDS011;48221;53.528;9.884;2023-02-12T17:24:02;1.30;;;1.15;;
60608;SDS011;48221;53.528;9.884;2023-02-12T17:26:28;1.88;;;1.58;;